Time;durP1;ratioP1;P1;durP2;ratioP2;P2;SDS_P1;SDS_P2;PMS_P1;PMS_P2;Temp;Humidity;BMP_temperature;BMP_pressure;BME280_temperature;BME280_humidity;BME280_pressure;Samples;Min_cycle;Max_cycle;Signal;HPM_P1;HPM_P2
2021/08/21 00:00:47;;;;;;;7.57;4.38;;;;;;;15.70;71.15;95871.56;5054105;28;20594;-76
2021/08/21 00:03:12;;;;;;;4.07;3.67;;;;;;;15.67;71.20;95867.50;5053642;28;20649;-76
2021/08/21 00:05:38;;;;;;;5.05;3.80;;;;;;;15.66;71.02;95870.31;5036308;28;20789;-76
2021/08/21 00:08:04;;;;;;;6.30;4.30;;;;;;;15.63;70.80;95860.97;5052717;28;20264;-76
2021/08/21 00:10:30;;;;;;;4.85;4.45;;;;;;;15.64;70.50;95859.19;5036157;28;20259;-76
2021/08/21 00:12:56;;;;;;;4.90;4.50;;;;;;;15.64;70.82;95862.63;5052604;28;20219;-77
2021/08/21 00:15:21;;;;;;;5.57;4.53;;;;;;;15.61;70.66;95859.50;5052865;28;20174;-73
2021/08/21 00:17:48;;;;;;;6.70;4.28;;;;;;;15.55;70.70;95850.53;5052706;28;20225;-76
2021/08/21 00:20:13;;;;;;;4.40;3.75;;;;;;;15.57;70.63;95856.41;5052654;28;20657;-76
2021/08/21 00:22:38;;;;;;;4.78;4.28;;;;;;;15.54;70.50;95860.16;5035351;28;20201;-75
2021/08/21 00:25:04;;;;;;;5.97;4.22;;;;;;;15.53;70.54;95857.72;5052740;28;20178;-75
2021/08/21 00:27:30;;;;;;;4.38;3.97;;;;;;;15.52;70.48;95862.13;5052443;28;20244;-76
2021/08/21 00:29:55;;;;;;;6.93;4.20;;;;;;;15.50;70.17;95860.69;5051719;28;20181;-76
2021/08/21 00:32:20;;;;;;;5.00;4.50;;;;;;;15.49;70.18;95865.09;5053056;28;20269;-75
2021/08/21 00:34:46;;;;;;;5.35;4.13;;;;;;;15.43;70.31;95857.09;5052339;28;20177;-76
2021/08/21 00:37:12;;;;;;;4.18;3.78;;;;;;;15.38;70.84;95855.00;5035393;28;20208;-76
2021/08/21 00:39:37;;;;;;;5.43;4.40;;;;;;;15.33;70.96;95859.94;5032693;28;20192;-76
2021/08/21 00:42:03;;;;;;;4.85;4.35;;;;;;;15.32;70.99;95854.88;5031452;28;20634;-75
2021/08/21 00:44:30;;;;;;;6.35;4.15;;;;;;;15.29;71.05;95853.41;5031801;28;20186;-75
2021/08/21 00:47:09;;;;;;;5.47;3.88;;;;;;;15.32;70.69;95854.88;5032107;28;20201;-76
2021/08/21 00:49:35;;;;;;;5.22;4.68;;;;;;;15.27;70.55;95850.94;5032115;28;20545;-76
2021/08/21 00:52:03;;;;;;;4.95;4.10;;;;;;;15.26;70.55;95851.13;5031534;28;20270;-76
2021/08/21 00:54:28;;;;;;;6.10;4.13;;;;;;;15.25;70.66;95849.50;5048551;28;20182;-76
2021/08/21 00:56:54;;;;;;;4.30;3.90;;;;;;;15.24;70.94;95840.00;5026422;28;20222;-75
2021/08/21 00:59:20;;;;;;;5.38;3.97;;;;;;;15.21;70.64;95845.59;5028282;28;20705;-77
2021/08/21 01:01:46;;;;;;;4.70;4.30;;;;;;;15.18;70.91;95843.28;5048182;28;20286;-77
2021/08/21 01:04:11;;;;;;;5.43;4.03;;;;;;;15.14;70.70;95842.81;5048626;28;20218;-76
2021/08/21 01:06:37;;;;;;;5.60;4.00;;;;;;;15.19;70.42;95844.91;5048441;28;20190;-75
2021/08/21 01:09:03;;;;;;;4.32;3.92;;;;;;;15.12;70.73;95841.38;5048507;28;20206;-77
2021/08/21 01:11:30;;;;;;;5.28;4.40;;;;;;;15.06;70.85;95844.66;5047998;28;20174;-77
2021/08/21 01:13:55;;;;;;;4.68;4.05;;;;;;;15.05;70.87;95843.03;5015082;28;20213;-76
2021/08/21 01:16:21;;;;;;;5.18;4.00;;;;;;;15.05;70.82;95843.03;5032567;28;20206;-75
2021/08/21 01:18:47;;;;;;;4.68;4.18;;;;;;;15.06;70.79;95839.41;5032709;28;20198;-76
2021/08/21 01:21:12;;;;;;;6.50;4.18;;;;;;;15.00;70.82;95841.72;5047693;28;20528;-76
2021/08/21 01:23:38;;;;;;;5.28;3.60;;;;;;;14.97;71.25;95839.44;5031383;28;20189;-76
2021/08/21 01:26:03;;;;;;;4.90;4.50;;;;;;;14.92;71.56;95841.72;5031439;28;20638;-75
2021/08/21 01:28:28;;;;;;;4.88;4.10;;;;;;;14.89;71.64;95834.22;5032679;28;20285;-76
2021/08/21 01:30:54;;;;;;;5.03;4.00;;;;;;;14.88;71.69;95834.41;5032457;28;20264;-77
2021/08/21 01:33:19;;;;;;;4.43;4.03;;;;;;;14.87;71.88;95835.38;5032446;28;20215;-76
2021/08/21 01:35:45;;;;;;;7.22;4.60;;;;;;;14.86;71.74;95837.19;5032465;28;20251;-77
2021/08/21 01:38:10;;;;;;;4.85;4.15;;;;;;;14.89;71.66;95828.19;5032223;28;20198;-76
2021/08/21 01:40:35;;;;;;;5.00;4.03;;;;;;;14.85;71.73;95826.91;5031159;28;20192;-75
2021/08/21 01:43:01;;;;;;;4.47;4.00;;;;;;;14.79;71.92;95828.38;5029731;28;20666;-76
2021/08/21 01:45:26;;;;;;;6.15;3.92;;;;;;;14.78;71.76;95831.97;5032265;28;20178;-76
2021/08/21 01:47:51;;;;;;;4.35;3.95;;;;;;;14.79;71.62;95832.78;5030808;28;20241;-76
2021/08/21 01:50:19;;;;;;;5.87;4.20;;;;;;;14.80;71.44;95832.63;5031051;28;20174;-76
2021/08/21 01:52:48;;;;;;;4.93;4.25;;;;;;;14.76;71.44;95828.72;5013923;28;20206;-76
2021/08/21 01:55:14;;;;;;;6.03;4.35;;;;;;;14.76;71.41;95826.09;5032095;28;20635;-76
2021/08/21 01:57:41;;;;;;;4.60;4.13;;;;;;;14.78;70.96;95823.31;5045713;28;20234;-76
2021/08/21 02:00:08;;;;;;;4.53;4.10;;;;;;;14.74;71.17;95826.25;5047557;28;20217;-76
2021/08/21 02:02:33;;;;;;;4.33;3.70;;;;;;;14.72;71.21;95822.97;5030414;28;20183;-76
2021/08/21 02:04:58;;;;;;;4.65;4.25;;;;;;;14.70;71.62;95822.34;5032224;28;20185;-76
2021/08/21 02:07:24;;;;;;;5.57;4.40;;;;;;;14.67;71.84;95820.06;5030718;28;20194;-77
2021/08/21 02:09:49;;;;;;;4.53;4.13;;;;;;;14.67;71.67;95819.25;5030782;28;20190;-76
2021/08/21 02:12:16;;;;;;;4.93;4.20;;;;;;;14.61;71.97;95812.06;5030089;28;20198;-76
2021/08/21 02:14:42;;;;;;;4.50;4.10;;;;;;;14.60;72.04;95816.47;5030809;28;20545;-77
2021/08/21 02:17:07;;;;;;;6.25;4.30;;;;;;;14.57;72.26;95808.94;5047121;28;20198;-76
2021/08/21 02:19:32;;;;;;;5.40;4.40;;;;;;;14.56;72.24;95806.50;5031822;28;20182;-77
2021/08/21 02:22:00;;;;;;;6.95;4.45;;;;;;;14.57;72.03;95808.13;5030110;28;20178;-77
2021/08/21 02:24:25;;;;;;;5.10;4.10;;;;;;;14.57;71.97;95810.75;5030617;28;20170;-76
2021/08/21 02:26:52;;;;;;;7.18;4.50;;;;;;;14.54;72.24;95805.88;5031315;28;20191;-76
2021/08/21 02:29:18;;;;;;;5.47;4.50;;;;;;;14.53;72.34;95807.66;5046970;28;20178;-76
2021/08/21 02:31:43;;;;;;;5.18;4.60;;;;;;;14.58;72.32;95801.97;5029605;28;20718;-74
2021/08/21 02:34:08;;;;;;;5.82;4.13;;;;;;;14.62;72.16;95805.84;5030409;28;20171;-76
2021/08/21 02:36:34;;;;;;;6.82;5.43;;;;;;;14.68;71.93;95805.19;5030392;28;20202;-76
2021/08/21 02:38:59;;;;;;;5.43;4.85;;;;;;;14.70;71.83;95800.63;5030145;28;20198;-75
2021/08/21 02:41:25;;;;;;;5.30;4.80;;;;;;;14.77;71.07;95806.81;5029439;28;20210;-76
2021/08/21 02:43:50;;;;;;;6.43;4.40;;;;;;;14.80;71.40;95800.44;5013521;28;20190;-76
2021/08/21 02:46:22;;;;;;;7.07;4.97;;;;;;;14.81;71.11;95795.03;5029986;28;20175;-76
2021/08/21 02:48:47;;;;;;;5.43;4.82;;;;;;;14.79;71.34;95798.81;5030111;28;20175;-76
2021/08/21 02:51:13;;;;;;;6.88;4.97;;;;;;;14.83;71.18;95793.06;5029641;28;20197;-77
2021/08/21 02:53:38;;;;;;;8.30;4.65;;;;;;;14.85;71.08;95796.34;5030844;28;20179;-76
2021/08/21 02:56:03;;;;;;;5.03;4.53;;;;;;;14.82;71.19;95798.44;5028531;28;20225;-76
2021/08/21 02:58:29;;;;;;;5.23;4.73;;;;;;;14.85;70.96;95804.19;5029620;28;20869;-76
2021/08/21 03:00:54;;;;;;;9.35;4.60;;;;;;;14.86;70.91;95794.53;5029859;28;20174;-76
2021/08/21 03:03:19;;;;;;;5.10;4.50;;;;;;;14.85;71.07;95791.09;5029416;28;20174;-76
2021/08/21 03:05:45;;;;;;;7.13;4.97;;;;;;;14.84;70.84;95788.63;5029793;28;20204;-75
2021/08/21 03:08:10;;;;;;;5.18;4.63;;;;;;;14.83;71.10;95798.28;5030044;28;20358;-77
2021/08/21 03:10:36;;;;;;;6.20;5.27;;;;;;;14.87;70.91;95796.16;5029790;28;20183;-76
2021/08/21 03:13:02;;;;;;;5.95;4.82;;;;;;;14.86;70.99;95802.38;5029335;28;20190;-74
2021/08/21 03:15:28;;;;;;;7.43;5.00;;;;;;;14.87;70.65;95789.13;5030010;28;20189;-77
2021/08/21 03:17:55;;;;;;;7.18;5.32;;;;;;;14.84;71.44;95796.47;5029896;28;20186;-76
2021/08/21 03:20:20;;;;;;;5.78;4.80;;;;;;;14.80;71.33;95787.34;5029944;28;20182;-74
2021/08/21 03:22:46;;;;;;;5.68;5.00;;;;;;;14.79;71.57;95791.78;5029146;28;20588;-75
2021/08/21 03:25:11;;;;;;;6.70;4.90;;;;;;;14.81;71.24;95787.19;5029786;28;20178;-74
2021/08/21 03:27:37;;;;;;;5.97;4.47;;;;;;;14.88;71.14;95797.78;5029640;28;20224;-74
2021/08/21 03:30:03;;;;;;;4.85;4.45;;;;;;;14.88;70.74;95789.94;5029688;28;20708;-76
2021/08/21 03:32:29;;;;;;;6.37;4.90;;;;;;;14.86;70.59;95782.28;5029067;28;20178;-76
2021/08/21 03:34:55;;;;;;;5.30;4.80;;;;;;;14.90;70.47;95791.41;5030906;28;20175;-76
2021/08/21 03:37:20;;;;;;;5.10;4.55;;;;;;;14.92;70.64;95786.81;5030806;28;20191;-76
2021/08/21 03:39:45;;;;;;;6.50;4.35;;;;;;;14.90;70.52;95787.97;5029564;28;20178;-75
2021/08/21 03:42:11;;;;;;;5.28;4.03;;;;;;;14.89;70.47;95787.16;5029046;28;20186;-75
2021/08/21 03:44:36;;;;;;;5.57;4.45;;;;;;;14.90;70.37;95780.13;5029572;28;20175;-75
2021/08/21 03:47:02;;;;;;;7.22;4.50;;;;;;;14.90;70.36;95780.13;5030665;28;20207;-75
2021/08/21 03:49:27;;;;;;;5.37;4.40;;;;;;;14.93;70.23;95791.09;5029580;28;20545;-76
2021/08/21 03:51:52;;;;;;;5.30;4.80;;;;;;;14.92;70.33;95784.19;5028784;28;20171;-77
2021/08/21 03:54:18;;;;;;;5.43;4.68;;;;;;;14.96;70.06;95784.69;5029563;28;20178;-76
2021/08/21 03:56:43;;;;;;;5.23;4.80;;;;;;;14.95;70.11;95785.69;5044696;28;20678;-76
2021/08/21 03:59:09;;;;;;;5.97;4.60;;;;;;;14.94;70.23;95784.88;5029580;28;20222;-76
2021/08/21 04:01:35;;;;;;;5.38;4.75;;;;;;;15.02;69.51;95792.69;5028915;28;20285;-76
2021/08/21 04:04:00;;;;;;;4.72;4.22;;;;;;;15.02;69.86;95792.69;5029506;28;20178;-76
2021/08/21 04:06:26;;;;;;;7.35;4.22;;;;;;;14.99;70.22;95781.72;5049104;28;20178;-76
2021/08/21 04:08:51;;;;;;;5.38;4.57;;;;;;;15.00;69.69;95792.03;5034356;28;20229;-76
2021/08/21 04:11:17;;;;;;;4.85;4.35;;;;;;;14.99;70.14;95793.00;5033931;28;20233;-76
2021/08/21 04:13:42;;;;;;;4.33;3.93;;;;;;;15.09;69.80;95786.75;5034060;28;20179;-77
2021/08/21 04:16:08;;;;;;;5.00;4.50;;;;;;;15.06;69.76;95784.50;5032871;28;20194;-76
2021/08/21 04:18:33;;;;;;;6.13;4.33;;;;;;;15.05;69.72;95788.09;5032501;28;20199;-76
2021/08/21 04:20:59;;;;;;;7.57;4.57;;;;;;;15.10;69.41;95788.38;5016366;28;20251;-76
2021/08/21 04:23:24;;;;;;;6.28;4.18;;;;;;;15.12;69.55;95791.69;5032357;28;20179;-77
2021/08/21 04:25:50;;;;;;;4.85;4.35;;;;;;;15.15;69.23;95788.72;5049471;28;20190;-76
2021/08/21 04:28:15;;;;;;;4.30;3.90;;;;;;;15.28;69.02;95789.81;5016012;28;20765;-77
2021/08/21 04:30:40;;;;;;;5.90;4.43;;;;;;;15.30;68.78;95792.25;5034068;28;20235;-77
2021/08/21 04:33:06;;;;;;;4.72;3.95;;;;;;;15.24;69.07;95790.31;5033156;28;20662;-76
2021/08/21 04:35:31;;;;;;;7.10;4.28;;;;;;;15.29;69.05;95793.25;5032518;28;20201;-77
2021/08/21 04:37:57;;;;;;;5.07;4.57;;;;;;;15.29;68.96;95788.81;5032462;28;20234;-76
2021/08/21 04:40:23;;;;;;;4.50;4.10;;;;;;;15.30;68.71;95793.06;5033669;28;20186;-77
2021/08/21 04:42:49;;;;;;;4.68;3.92;;;;;;;15.40;68.67;95795.47;5031905;28;20236;-77
2021/08/21 04:45:14;;;;;;;4.75;4.35;;;;;;;15.42;68.61;95801.34;5032397;28;20630;-76
2021/08/21 04:47:39;;;;;;;4.97;4.25;;;;;;;15.46;68.46;95794.78;5032339;28;20212;-76
2021/08/21 04:50:06;;;;;;;4.55;4.07;;;;;;;15.49;68.46;95791.00;5032370;28;20183;-76
2021/08/21 04:52:31;;;;;;;5.07;4.40;;;;;;;15.64;67.73;95791.94;5015173;28;20245;-76
2021/08/21 04:54:57;;;;;;;5.43;3.92;;;;;;;15.70;67.42;95790.41;5032348;28;20218;-76
2021/08/21 04:57:22;;;;;;;4.82;4.20;;;;;;;15.76;67.50;95795.78;5030858;28;20241;-77
2021/08/21 04:59:47;;;;;;;4.40;4.00;;;;;;;15.95;66.79;95794.50;5033270;28;20183;-77
2021/08/21 05:02:13;;;;;;;5.50;3.60;;;;;;;16.15;65.62;95793.03;5032776;28;20288;-75
2021/08/21 05:04:38;;;;;;;4.55;4.15;;;;;;;17.02;63.09;95800.44;5032031;28;20179;-75
2021/08/21 05:07:03;;;;;;;4.70;3.83;;;;;;;17.77;61.04;95796.75;5031795;28;20265;-75
2021/08/21 05:09:29;;;;;;;6.20;3.65;;;;;;;18.14;58.58;95808.84;5031689;28;20241;-76
2021/08/21 05:11:54;;;;;;;7.22;4.03;;;;;;;18.30;58.77;95799.88;5032424;28;20181;-75
2021/08/21 05:14:19;;;;;;;6.47;3.72;;;;;;;18.03;58.87;95798.84;5031698;28;20276;-75
2021/08/21 05:16:46;;;;;;;5.57;4.03;;;;;;;17.77;59.74;95802.81;5032629;28;20206;-76
2021/08/21 05:19:37;;;;;;;3.90;3.50;;;;;;;17.44;61.04;95798.97;5015315;28;20202;-75
2021/08/21 05:22:09;;;;;;;5.22;3.83;;;;;;;17.15;61.70;95808.50;5031186;28;20206;-76
2021/08/21 05:24:35;;;;;;;4.22;3.70;;;;;;;17.21;61.73;95806.94;5032678;28;20247;-76
2021/08/21 05:27:00;;;;;;;5.43;4.18;;;;;;;16.98;62.34;95804.44;5031240;28;20186;-76
2021/08/21 05:29:26;;;;;;;3.83;3.53;;;;;;;16.96;63.01;95803.78;5031426;28;20189;-75
2021/08/21 05:31:51;;;;;;;5.90;3.97;;;;;;;16.82;63.42;95805.41;5030952;28;20495;-76
2021/08/21 05:34:16;;;;;;;4.82;3.78;;;;;;;16.89;62.92;95806.34;5032489;28;20171;-76
2021/08/21 05:36:42;;;;;;;4.85;3.80;;;;;;;16.85;63.00;95807.66;5031088;28;20206;-75
2021/08/21 05:39:09;;;;;;;5.53;4.22;;;;;;;16.85;63.11;95804.22;5031117;28;20202;-76
2021/08/21 05:41:34;;;;;;;4.72;3.88;;;;;;;16.98;62.67;95812.31;5030500;28;20194;-75
2021/08/21 05:43:59;;;;;;;5.68;3.85;;;;;;;16.97;63.22;95808.88;5030956;28;20541;-76
2021/08/21 05:46:25;;;;;;;4.80;4.10;;;;;;;16.85;63.31;95802.41;5031146;28;20205;-77
2021/08/21 05:48:50;;;;;;;4.75;3.92;;;;;;;16.91;63.18;95812.19;5031295;28;20638;-77
2021/08/21 05:51:15;;;;;;;5.90;3.70;;;;;;;17.07;63.48;95802.53;5034476;28;20178;-76
2021/08/21 05:53:41;;;;;;;4.68;3.83;;;;;;;17.10;62.92;95802.16;5023725;28;20273;-77
2021/08/21 05:56:06;;;;;;;7.68;3.92;;;;;;;17.18;62.37;95805.50;5040071;28;20591;-77
2021/08/21 05:58:31;;;;;;;4.88;4.28;;;;;;;17.10;62.91;95813.47;5041349;28;20229;-77
2021/08/21 06:00:57;;;;;;;4.07;3.70;;;;;;;17.22;62.27;95816.44;5022675;28;20265;-76
2021/08/21 06:03:22;;;;;;;6.47;4.00;;;;;;;17.04;63.07;95816.81;5036458;28;20178;-75
2021/08/21 06:05:47;;;;;;;6.22;3.65;;;;;;;17.26;62.66;95820.34;5030111;28;20178;-76
2021/08/21 06:08:13;;;;;;;6.28;3.90;;;;;;;17.48;61.64;95824.66;5047921;28;20268;-77
2021/08/21 06:10:42;;;;;;;6.53;4.60;;;;;;;17.39;62.26;95823.13;5045123;28;20207;-78
2021/08/21 06:13:07;;;;;;;5.53;4.28;;;;;;;17.54;61.65;95823.94;5033097;28;20185;-78
2021/08/21 06:15:33;;;;;;;3.90;3.50;;;;;;;17.70;61.03;95817.69;5033808;28;20178;-78
2021/08/21 06:17:58;;;;;;;4.03;3.63;;;;;;;17.77;61.20;95833.53;5050337;28;20641;-78
2021/08/21 06:20:23;;;;;;;3.88;3.58;;;;;;;17.75;61.42;95825.81;5051674;28;20180;-78
2021/08/21 06:22:49;;;;;;;3.95;3.55;;;;;;;17.81;61.46;95825.06;5049011;28;20256;-78
2021/08/21 06:25:14;;;;;;;4.53;3.60;;;;;;;17.97;60.81;95828.47;5050009;28;20177;-77
2021/08/21 06:27:39;;;;;;;5.75;3.50;;;;;;;17.93;61.00;95835.09;5051424;28;20233;-78
2021/08/21 06:30:06;;;;;;;6.28;3.70;;;;;;;18.20;60.15;95826.50;5050593;28;20231;-77
2021/08/21 06:32:31;;;;;;;5.28;4.00;;;;;;;18.13;60.33;95833.50;5049164;28;20181;-77
2021/08/21 06:34:57;;;;;;;5.68;3.97;;;;;;;18.02;60.53;95836.59;5033415;28;20190;-77
2021/08/21 06:37:22;;;;;;;4.57;3.95;;;;;;;18.27;60.04;95827.34;5034281;28;20209;-77
2021/08/21 06:39:47;;;;;;;7.13;4.10;;;;;;;18.46;60.27;95822.44;5034592;28;20568;-79
2021/08/21 06:42:12;;;;;;;5.47;3.80;;;;;;;18.69;58.91;95812.56;5033504;28;20182;-78
2021/08/21 06:44:38;;;;;;;4.32;3.53;;;;;;;18.70;58.78;95823.88;5052873;28;20223;-79
2021/08/21 06:47:03;;;;;;;4.15;3.75;;;;;;;18.80;58.34;95829.63;5051204;28;20256;-78
2021/08/21 06:49:28;;;;;;;4.20;3.80;;;;;;;19.01;57.71;95828.78;5048392;28;20543;-78
2021/08/21 06:51:54;;;;;;;4.80;3.70;;;;;;;19.88;55.11;95834.28;5051392;28;20231;-78
2021/08/21 06:54:20;;;;;;;4.57;4.10;;;;;;;20.73;53.38;95826.69;5051022;28;20173;-77
2021/08/21 06:56:45;;;;;;;4.80;3.60;;;;;;;21.19;52.07;95829.25;5033865;28;20217;-78
2021/08/21 06:59:11;;;;;;;6.05;3.60;;;;;;;21.57;50.67;95826.75;5051305;28;20194;-80
2021/08/21 07:01:36;;;;;;;4.55;3.58;;;;;;;21.06;50.58;95830.13;5051068;28;20216;-79
2021/08/21 07:04:02;;;;;;;5.03;3.80;;;;;;;20.83;52.35;95827.91;5034581;28;20262;-79
2021/08/21 07:06:27;;;;;;;4.78;3.88;;;;;;;20.93;52.18;95827.47;5050274;28;20264;-78
2021/08/21 07:08:52;;;;;;;7.35;4.00;;;;;;;20.91;52.56;95826.88;5034480;28;20189;-79
2021/08/21 07:11:17;;;;;;;4.70;3.78;;;;;;;20.69;53.11;95826.31;5052049;28;20188;-79
2021/08/21 07:13:45;;;;;;;5.82;4.35;;;;;;;20.17;55.04;95827.03;5051489;28;20189;-78
2021/08/21 07:16:10;;;;;;;5.50;3.78;;;;;;;20.43;54.19;95827.09;5035220;28;20266;-79
2021/08/21 07:18:36;;;;;;;5.35;3.90;;;;;;;20.43;54.15;95829.75;5051720;28;20292;-76
2021/08/21 07:21:02;;;;;;;5.15;3.83;;;;;;;20.23;54.41;95823.59;5038158;28;20183;-79
2021/08/21 07:23:27;;;;;;;5.40;3.60;;;;;;;20.21;54.64;95823.78;5036030;28;20658;-80
2021/08/21 07:25:52;;;;;;;4.03;3.65;;;;;;;20.29;54.93;95830.69;5043135;28;20189;-81
2021/08/21 07:28:18;;;;;;;4.20;3.80;;;;;;;20.30;54.13;95827.84;5032306;28;20566;-77
2021/08/21 07:30:43;;;;;;;6.13;3.60;;;;;;;20.23;55.16;95828.84;5034933;28;20182;-75
2021/08/21 07:33:08;;;;;;;4.25;3.80;;;;;;;20.47;54.45;95827.50;5036968;28;20208;-77
2021/08/21 07:35:33;;;;;;;3.63;3.33;;;;;;;20.57;54.21;95825.25;5041888;28;20638;-79
2021/08/21 07:37:59;;;;;;;7.05;3.50;;;;;;;20.45;54.47;95827.72;5042067;28;20189;-80
2021/08/21 07:40:24;;;;;;;7.38;3.35;;;;;;;20.54;54.52;95825.69;5023909;28;20183;-79
2021/08/21 07:42:50;;;;;;;4.97;3.90;;;;;;;20.60;54.36;95830.16;5043361;28;20710;-80
2021/08/21 07:45:16;;;;;;;5.13;4.15;;;;;;;20.66;54.78;95826.69;5053405;28;20232;-78
2021/08/21 07:47:42;;;;;;;5.55;3.80;;;;;;;20.81;53.80;95829.13;5056252;28;20612;-78
2021/08/21 07:50:08;;;;;;;4.47;3.65;;;;;;;20.72;54.01;95833.00;5055911;28;20173;-78
2021/08/21 07:52:33;;;;;;;4.53;3.80;;;;;;;20.75;53.96;95835.22;5054562;28;20272;-78
2021/08/21 07:54:58;;;;;;;6.60;4.05;;;;;;;20.54;53.55;95834.41;5055652;28;20209;-79
2021/08/21 07:57:24;;;;;;;4.70;3.75;;;;;;;20.71;53.77;95834.00;5053035;28;20206;-76
2021/08/21 07:59:49;;;;;;;3.88;3.50;;;;;;;21.00;53.35;95844.13;5056362;28;20186;-78
2021/08/21 08:02:15;;;;;;;4.25;3.80;;;;;;;20.97;53.19;95838.47;5055105;28;20649;-79
2021/08/21 08:04:40;;;;;;;6.65;3.90;;;;;;;21.21;53.06;95848.38;5056180;28;20192;-79
2021/08/21 08:07:06;;;;;;;3.83;3.42;;;;;;;21.14;52.50;95851.03;5039029;28;20288;-79
2021/08/21 08:09:31;;;;;;;4.65;4.10;;;;;;;20.96;53.26;95848.22;5056616;28;20189;-78
2021/08/21 08:11:57;;;;;;;5.47;3.83;;;;;;;20.91;53.28;95846.16;5056291;28;20276;-77
2021/08/21 08:14:22;;;;;;;4.15;3.78;;;;;;;21.13;53.64;95848.59;5038445;28;20288;-78
2021/08/21 08:16:47;;;;;;;4.38;3.83;;;;;;;21.24;53.80;95850.59;5056463;28;20202;-78
2021/08/21 08:19:13;;;;;;;4.63;3.55;;;;;;;21.45;53.06;95852.19;5071913;28;20202;-76
2021/08/21 08:21:38;;;;;;;5.80;3.50;;;;;;;21.68;52.89;95851.72;5071401;28;20563;-78
2021/08/21 08:24:04;;;;;;;4.60;3.65;;;;;;;21.57;53.56;95845.25;5038899;28;20186;-78
2021/08/21 08:26:29;;;;;;;5.10;3.58;;;;;;;21.63;53.29;95846.22;5070441;28;20269;-76
2021/08/21 08:28:54;;;;;;;6.28;3.78;;;;;;;21.56;52.75;95843.63;5044057;28;20185;-77
2021/08/21 08:31:19;;;;;;;5.68;4.05;;;;;;;21.76;52.58;95848.84;5032178;28;20226;-77
2021/08/21 08:33:45;;;;;;;4.07;3.67;;;;;;;21.95;52.89;95853.22;5032550;28;20201;-77
2021/08/21 08:36:10;;;;;;;3.85;3.53;;;;;;;22.05;53.91;95847.47;5048132;28;20206;-77
2021/08/21 08:38:36;;;;;;;6.13;3.42;;;;;;;22.01;53.58;95847.09;5032678;28;20207;-76
2021/08/21 08:41:01;;;;;;;3.90;3.50;;;;;;;22.26;51.82;95849.84;5031793;28;20686;-77
2021/08/21 08:43:28;;;;;;;5.20;3.67;;;;;;;22.41;51.88;95851.34;5049018;28;20171;-77
2021/08/21 08:45:53;;;;;;;6.55;4.07;;;;;;;22.00;53.02;95852.59;5033515;28;20629;-77
2021/08/21 08:48:20;;;;;;;5.43;4.10;;;;;;;22.18;53.68;95857.22;5034033;28;20191;-77
2021/08/21 08:50:47;;;;;;;5.85;4.03;;;;;;;22.24;52.74;95851.06;5049768;28;20189;-78
2021/08/21 08:53:12;;;;;;;3.80;3.50;;;;;;;22.55;51.98;95852.91;5032888;28;20568;-78
2021/08/21 08:55:39;;;;;;;4.45;3.97;;;;;;;22.73;52.35;95852.16;5033506;28;20185;-77
2021/08/21 08:58:05;;;;;;;4.72;3.80;;;;;;;22.77;53.34;95861.28;5032783;28;20260;-77
2021/08/21 09:00:31;;;;;;;5.30;4.25;;;;;;;22.89;51.67;95859.59;5049632;28;20182;-77
2021/08/21 09:02:58;;;;;;;3.97;3.67;;;;;;;22.89;52.25;95865.69;5048270;28;20175;-77
2021/08/21 09:05:26;;;;;;;5.20;4.75;;;;;;;22.97;52.51;95855.81;5033721;28;20175;-77
2021/08/21 09:07:56;;;;;;;5.68;3.70;;;;;;;23.04;51.74;95862.69;5015608;28;20217;-77
2021/08/21 09:10:32;;;;;;;5.40;4.00;;;;;;;23.11;51.34;95863.44;5049766;28;20174;-78
2021/08/21 09:13:08;;;;;;;4.95;3.80;;;;;;;22.98;51.29;95857.47;5048757;28;20170;-79
2021/08/21 09:15:46;;;;;;;5.70;4.53;;;;;;;22.90;52.02;95863.84;5032739;28;20206;-78
2021/08/21 09:18:13;;;;;;;7.18;4.55;;;;;;;22.80;53.12;95858.22;5032152;28;20233;-77
2021/08/21 09:20:47;;;;;;;6.80;4.70;;;;;;;23.25;52.55;95864.16;5033614;28;20182;-78
2021/08/21 09:23:18;;;;;;;8.32;4.38;;;;;;;23.28;51.32;95861.03;5032848;28;20312;-77
2021/08/21 09:25:44;;;;;;;4.32;3.85;;;;;;;23.54;50.59;95859.16;5033336;28;20211;-77
2021/08/21 09:28:36;;;;;;;8.52;4.10;;;;;;;23.16;50.72;95857.50;5031543;28;20666;-78
2021/08/21 09:31:05;;;;;;;4.50;4.10;;;;;;;23.27;50.14;95858.63;5033944;28;20186;-76
2021/08/21 09:33:31;;;;;;;8.18;5.07;;;;;;;23.09;51.87;95859.41;5032538;28;20301;-77
2021/08/21 09:35:57;;;;;;;7.53;4.68;;;;;;;23.21;51.14;95856.84;5048512;28;20625;-77
2021/08/21 09:38:26;;;;;;;4.90;4.13;;;;;;;23.11;50.87;95854.69;5031935;28;20799;-77
2021/08/21 09:40:57;;;;;;;6.38;4.43;;;;;;;23.10;51.65;95853.06;5048383;28;20189;-77
2021/08/21 09:43:28;;;;;;;4.82;4.20;;;;;;;22.57;52.51;95853.50;5047773;28;20253;-78
2021/08/21 09:46:06;;;;;;;4.90;4.10;;;;;;;22.58;52.61;95855.09;5048539;28;20206;-77
2021/08/21 09:48:32;;;;;;;5.88;4.25;;;;;;;22.77;52.52;95853.31;5031918;28;20193;-78
2021/08/21 09:50:57;;;;;;;4.80;4.35;;;;;;;22.75;52.79;95850.91;5048658;28;20178;-78
2021/08/21 09:53:35;;;;;;;4.90;4.50;;;;;;;22.98;52.01;95849.53;5031634;28;20251;-78
2021/08/21 09:56:09;;;;;;;4.93;4.45;;;;;;;23.07;51.71;95845.56;5048654;28;20182;-77
2021/08/21 09:58:35;;;;;;;4.57;4.25;;;;;;;23.01;52.71;95847.25;5031576;28;20213;-77
2021/08/21 10:01:04;;;;;;;7.10;4.20;;;;;;;23.04;51.11;95846.00;5032054;28;20212;-77
2021/08/21 10:03:30;;;;;;;5.70;4.10;;;;;;;23.17;51.89;95843.22;5045799;28;20545;-78
2021/08/21 10:05:55;;;;;;;5.97;4.32;;;;;;;23.06;51.29;95838.66;5047758;28;20178;-79
2021/08/21 10:08:26;;;;;;;5.07;4.50;;;;;;;23.20;51.32;95845.44;5048053;28;20274;-76
2021/08/21 10:10:53;;;;;;;4.97;4.38;;;;;;;22.78;52.05;95844.34;5047463;28;20175;-76
2021/08/21 10:13:27;;;;;;;5.45;4.95;;;;;;;23.24;50.97;95843.97;5030169;28;20265;-76
2021/08/21 10:15:55;;;;;;;5.00;4.53;;;;;;;23.33;51.06;95841.84;5046665;28;20554;-76
2021/08/21 10:18:22;;;;;;;5.20;4.45;;;;;;;23.43;51.97;95840.31;5030809;28;20681;-76
2021/08/21 10:20:47;;;;;;;6.18;4.55;;;;;;;23.20;52.22;95840.13;5030798;28;20240;-76
2021/08/21 10:23:14;;;;;;;4.88;4.15;;;;;;;23.59;50.91;95843.38;5046937;28;20206;-77
2021/08/21 10:25:43;;;;;;;6.82;4.70;;;;;;;23.81;51.56;95847.22;5030774;28;20181;-77
2021/08/21 10:28:09;;;;;;;6.50;4.80;;;;;;;23.84;49.96;95846.78;5047179;28;20201;-78
2021/08/21 10:30:46;;;;;;;7.38;5.00;;;;;;;23.75;48.94;95845.47;5047545;28;20178;-76
2021/08/21 10:33:12;;;;;;;5.57;4.85;;;;;;;23.89;49.78;95841.63;5031248;28;20166;-78
2021/08/21 10:35:49;;;;;;;5.32;4.80;;;;;;;23.91;50.50;95844.84;5030794;28;20669;-77
2021/08/21 10:38:33;;;;;;;4.97;4.20;;;;;;;24.02;50.89;95844.09;5031922;28;20200;-76
2021/08/21 10:40:59;;;;;;;8.05;5.10;;;;;;;23.86;49.22;95839.44;5031389;28;20598;-78
2021/08/21 10:43:46;;;;;;;5.32;4.82;;;;;;;23.88;50.78;95842.66;5046248;28;20572;-78
2021/08/21 10:46:12;;;;;;;5.40;4.90;;;;;;;23.73;50.78;95842.22;5047509;28;20210;-78
2021/08/21 10:48:37;;;;;;;5.43;4.38;;;;;;;23.95;49.71;95838.09;5047565;28;20545;-78
2021/08/21 10:51:04;;;;;;;6.10;4.53;;;;;;;23.81;49.77;95836.63;5031750;28;20232;-78
2021/08/21 10:53:31;;;;;;;6.13;5.03;;;;;;;23.76;49.01;95838.31;5046293;28;20460;-77
2021/08/21 10:55:58;;;;;;;7.22;4.97;;;;;;;24.20;48.22;95837.94;5030572;28;20182;-78
2021/08/21 10:58:28;;;;;;;5.38;4.40;;;;;;;23.94;50.46;95839.13;5030534;28;20714;-78
2021/08/21 11:00:58;;;;;;;6.30;4.40;;;;;;;23.90;51.14;95835.28;5047579;28;20210;-77
2021/08/21 11:03:23;;;;;;;5.70;4.60;;;;;;;23.63;50.97;95836.66;5046843;28;20206;-78
2021/08/21 11:06:07;;;;;;;6.75;5.03;;;;;;;23.34;50.94;95838.19;5032407;28;20179;-77
2021/08/21 11:08:52;;;;;;;4.95;4.45;;;;;;;23.27;50.44;95838.22;5046977;28;20190;-77
2021/08/21 11:11:24;;;;;;;7.65;5.18;;;;;;;23.53;50.46;95839.78;5013950;28;20561;-78
2021/08/21 11:14:01;;;;;;;7.00;5.22;;;;;;;23.92;51.10;95843.00;5047391;28;20182;-77
2021/08/21 11:16:47;;;;;;;7.45;5.20;;;;;;;23.98;50.49;95839.47;5050313;28;20174;-74
2021/08/21 11:19:29;;;;;;;5.93;4.35;;;;;;;24.32;48.76;95832.72;5033713;28;20202;-75
2021/08/21 11:22:27;;;;;;;5.05;4.40;;;;;;;24.35;48.68;95834.09;5034608;28;20175;-74
2021/08/21 11:24:52;;;;;;;8.02;4.93;;;;;;;24.39;49.50;95832.63;5035578;28;20192;-74
2021/08/21 11:27:28;;;;;;;9.90;5.10;;;;;;;23.87;48.28;95835.75;5052493;28;20224;-74
2021/08/21 11:30:09;;;;;;;5.40;4.65;;;;;;;23.99;48.92;95839.25;5035589;28;20546;-76
2021/08/21 11:32:47;;;;;;;5.38;4.88;;;;;;;24.03;49.20;95836.97;5035360;28;20199;-75